createdAt,value
2019-01-27T00:01:02.804Z,58.70
2019-01-27T00:03:29.427Z,55.03
2019-01-27T00:05:56.138Z,55.23
2019-01-27T00:08:22.871Z,52.27
2019-01-27T00:10:49.493Z,50.27
2019-01-27T00:13:17.177Z,50.52
2019-01-27T00:15:44.104Z,52.43
2019-01-27T00:18:12.314Z,48.30
2019-01-27T00:20:39.146Z,53.53
2019-01-27T00:23:06.101Z,54.80
2019-01-27T00:25:33.041Z,59.48
2019-01-27T00:27:59.945Z,53.93
2019-01-27T00:30:26.606Z,49.63
2019-01-27T00:32:53.255Z,53.27
2019-01-27T00:35:20.542Z,54.53
2019-01-27T00:37:47.303Z,52.50
2019-01-27T00:40:14.269Z,51.15
2019-01-27T00:42:42.628Z,51.90
2019-01-27T00:45:09.375Z,53.37
2019-01-27T00:47:36.246Z,56.85
2019-01-27T00:50:02.914Z,52.83
2019-01-27T00:52:29.548Z,57.63
2019-01-27T00:54:56.440Z,49.47
2019-01-27T00:57:23.083Z,47.80
2019-01-27T00:59:49.717Z,57.37
2019-01-27T01:02:16.637Z,53.58
2019-01-27T01:04:43.710Z,57.60
2019-01-27T01:07:11.274Z,57.30
2019-01-27T01:09:39.100Z,51.30
2019-01-27T01:12:08.352Z,54.77
2019-01-27T01:14:36.365Z,51.07
2019-01-27T01:17:09.611Z,51.35
2019-01-27T01:19:38.269Z,52.40
2019-01-27T01:22:05.914Z,54.37
2019-01-27T01:24:33.732Z,60.00
2019-01-27T01:27:01.240Z,60.37
2019-01-27T01:29:30.123Z,56.37
2019-01-27T01:32:01.644Z,65.47
2019-01-27T01:34:33.241Z,61.90
2019-01-27T01:37:02.042Z,47.80
2019-01-27T01:39:31.816Z,54.83
2019-01-27T01:41:59.738Z,48.57
2019-01-27T01:44:27.625Z,50.83
2019-01-27T01:46:58.724Z,53.93
2019-01-27T01:49:31.721Z,53.70
2019-01-27T01:51:59.633Z,49.15
2019-01-27T01:54:29.356Z,53.20
2019-01-27T01:56:57.626Z,49.42
2019-01-27T01:59:28.502Z,48.73
2019-01-27T02:01:56.508Z,50.23
2019-01-27T02:04:25.300Z,58.33
2019-01-27T02:06:54.932Z,54.83
2019-01-27T02:09:26.048Z,48.30
2019-01-27T02:11:59.272Z,51.80
2019-01-27T02:14:30.362Z,50.80
2019-01-27T02:16:58.327Z,60.93
2019-01-27T02:19:26.254Z,58.67
2019-01-27T02:21:55.924Z,52.27
2019-01-27T02:24:26.059Z,57.20
2019-01-27T02:26:53.034Z,57.03
2019-01-27T02:29:20.062Z,50.75
2019-01-27T02:31:48.419Z,56.83
2019-01-27T02:34:19.183Z,51.53
2019-01-27T02:36:45.883Z,46.77
2019-01-27T02:39:13.320Z,42.13
2019-01-27T02:41:40.041Z,44.23
2019-01-27T02:44:06.879Z,43.43
2019-01-27T02:46:33.587Z,47.00
2019-01-27T02:49:00.337Z,40.70
2019-01-27T02:51:27.038Z,44.33
2019-01-27T02:53:53.963Z,36.77
2019-01-27T02:56:20.752Z,51.27
2019-01-27T02:58:47.893Z,38.87
2019-01-27T03:01:15.974Z,44.90
2019-01-27T03:03:42.759Z,50.60
2019-01-27T03:06:10.590Z,50.97
2019-01-27T03:08:38.123Z,55.20
2019-01-27T03:11:05.130Z,45.27
2019-01-27T03:13:33.768Z,48.90
2019-01-27T03:16:01.474Z,42.67
2019-01-27T03:18:28.433Z,35.10
2019-01-27T03:20:55.921Z,41.75
2019-01-27T03:23:23.592Z,38.47
2019-01-27T03:25:51.191Z,38.10
2019-01-27T03:28:19.901Z,35.83
2019-01-27T03:30:47.990Z,39.63
2019-01-27T03:33:15.832Z,34.67
2019-01-27T03:35:43.300Z,34.77
2019-01-27T03:38:10.260Z,36.70
2019-01-27T03:40:37.273Z,35.23
2019-01-27T03:43:04.000Z,34.77
2019-01-27T03:45:31.004Z,36.88
2019-01-27T03:47:58.271Z,28.67
2019-01-27T03:50:25.790Z,29.77
2019-01-27T03:52:54.174Z,31.37
2019-01-27T03:55:22.275Z,23.03
2019-01-27T03:57:49.908Z,23.77
2019-01-27T04:00:17.561Z,29.83
2019-01-27T04:02:45.620Z,28.97
2019-01-27T04:05:13.107Z,25.23
2019-01-27T04:07:40.022Z,24.83
2019-01-27T04:10:07.075Z,28.80
2019-01-27T04:12:33.809Z,25.73
2019-01-27T04:15:00.627Z,25.20
2019-01-27T04:17:27.647Z,26.33
2019-01-27T04:19:54.563Z,32.50
2019-01-27T04:22:22.311Z,29.17
2019-01-27T04:24:49.105Z,38.07
2019-01-27T04:27:15.951Z,41.80
2019-01-27T04:29:42.586Z,35.20
2019-01-27T04:32:09.494Z,43.83
2019-01-27T04:34:36.548Z,45.23
2019-01-27T04:37:03.833Z,35.38
2019-01-27T04:42:17.584Z,50.60
2019-01-27T04:44:49.781Z,39.58
2019-01-27T04:47:19.279Z,45.00
2019-01-27T04:49:46.313Z,39.33
2019-01-27T04:52:15.710Z,52.37
2019-01-27T04:54:42.407Z,46.97
2019-01-27T04:57:09.786Z,43.37
2019-01-27T04:59:39.514Z,38.40
2019-01-27T05:02:06.311Z,38.50
2019-01-27T05:04:33.080Z,40.27
2019-01-27T05:06:59.902Z,42.43
2019-01-27T05:09:26.970Z,48.13
2019-01-27T05:11:53.925Z,37.50
2019-01-27T05:14:20.565Z,40.95
2019-01-27T05:16:47.252Z,40.17
2019-01-27T05:19:14.080Z,43.10
2019-01-27T05:21:41.001Z,37.83
2019-01-27T05:24:07.593Z,32.20
2019-01-27T05:26:34.209Z,36.93
2019-01-27T05:29:01.104Z,38.33
2019-01-27T05:31:27.727Z,31.33
2019-01-27T05:33:54.398Z,32.30
2019-01-27T05:36:21.336Z,30.67
2019-01-27T05:38:48.156Z,32.73
2019-01-27T05:41:16.622Z,31.92
2019-01-27T05:43:43.446Z,33.50
2019-01-27T05:46:10.373Z,29.57
2019-01-27T05:48:37.282Z,30.95
2019-01-27T05:51:03.929Z,35.13
2019-01-27T05:53:30.547Z,33.83
2019-01-27T05:55:57.576Z,30.77
2019-01-27T05:58:24.619Z,35.83
2019-01-27T06:00:51.588Z,33.20
2019-01-27T06:03:18.513Z,31.67
2019-01-27T06:05:46.966Z,37.82
2019-01-27T06:08:13.646Z,41.00
2019-01-27T06:10:40.628Z,38.27
2019-01-27T06:13:07.541Z,37.33
2019-01-27T06:15:34.153Z,33.90
2019-01-27T06:18:00.750Z,37.90
2019-01-27T06:20:27.636Z,39.58
2019-01-27T06:22:54.238Z,34.43
2019-01-27T06:25:20.885Z,34.13
2019-01-27T06:27:47.776Z,37.97
2019-01-27T06:30:14.399Z,36.90
2019-01-27T06:32:41.047Z,33.23
2019-01-27T06:35:07.952Z,34.67
2019-01-27T06:37:38.438Z,33.23
2019-01-27T06:40:09.186Z,42.03
2019-01-27T06:42:36.271Z,36.37
2019-01-27T06:45:04.441Z,32.80
2019-01-27T06:47:31.359Z,39.95
2019-01-27T06:49:58.841Z,37.33
2019-01-27T06:52:27.382Z,35.77
2019-01-27T06:54:54.175Z,34.43
2019-01-27T06:57:21.134Z,31.00
2019-01-27T06:59:47.785Z,40.57
2019-01-27T07:02:14.436Z,36.17
2019-01-27T07:04:41.208Z,34.87
2019-01-27T07:07:07.824Z,39.13
2019-01-27T07:09:34.447Z,42.87
2019-01-27T07:12:01.870Z,37.73
2019-01-27T07:14:28.600Z,47.53
2019-01-27T07:16:55.414Z,45.90
2019-01-27T07:19:22.265Z,42.50
2019-01-27T07:21:48.951Z,37.73
2019-01-27T07:24:15.656Z,36.43
2019-01-27T07:26:42.826Z,40.17
2019-01-27T07:29:09.637Z,35.80
2019-01-27T07:31:37.873Z,37.35
2019-01-27T07:34:04.642Z,42.23
2019-01-27T07:36:31.295Z,44.93
2019-01-27T07:38:57.931Z,40.30
2019-01-27T07:41:24.814Z,36.80
2019-01-27T07:43:51.820Z,40.58
2019-01-27T07:46:18.743Z,33.15
2019-01-27T07:48:46.620Z,35.50
2019-01-27T07:51:14.489Z,36.73
2019-01-27T07:53:44.067Z,35.17
2019-01-27T07:56:14.495Z,37.70
2019-01-27T07:58:43.634Z,39.55
2019-01-27T08:01:11.280Z,36.37
2019-01-27T08:03:38.662Z,34.43
2019-01-27T08:06:05.236Z,37.40
2019-01-27T08:08:32.240Z,39.57
2019-01-27T08:10:59.159Z,38.53
2019-01-27T08:13:26.114Z,37.42
2019-01-27T08:15:52.748Z,36.97
2019-01-27T08:18:19.415Z,35.33
2019-01-27T08:20:46.253Z,41.37
2019-01-27T08:23:13.796Z,36.96
2019-01-27T08:25:40.480Z,39.13
2019-01-27T08:28:08.739Z,42.55
2019-01-27T08:30:35.420Z,41.83
2019-01-27T08:33:08.119Z,40.37
2019-01-27T08:35:34.698Z,41.30
2019-01-27T08:38:01.457Z,40.37
2019-01-27T08:40:28.403Z,39.50
2019-01-27T08:42:55.087Z,31.30
2019-01-27T08:45:22.077Z,42.93
2019-01-27T08:47:48.710Z,44.13
2019-01-27T08:50:15.574Z,43.23
2019-01-27T08:52:42.207Z,46.67
2019-01-27T08:55:09.077Z,46.43
2019-01-27T08:57:35.705Z,50.60
2019-01-27T09:00:02.628Z,46.13
2019-01-27T09:02:29.607Z,45.92
2019-01-27T09:04:56.330Z,45.77
2019-01-27T09:07:22.988Z,47.73
2019-01-27T09:09:49.714Z,47.60
2019-01-27T09:12:16.301Z,47.03
2019-01-27T09:14:42.942Z,44.55
2019-01-27T09:17:09.835Z,43.67
2019-01-27T09:19:36.611Z,43.07
2019-01-27T09:22:03.250Z,44.03
2019-01-27T09:24:30.253Z,46.50
2019-01-27T09:26:56.909Z,41.83
2019-01-27T09:29:23.541Z,49.33
2019-01-27T09:31:50.212Z,49.10
2019-01-27T09:34:16.843Z,54.60
2019-01-27T09:36:43.823Z,48.97
2019-01-27T09:39:10.737Z,50.37
2019-01-27T09:41:37.406Z,45.93
2019-01-27T09:44:04.024Z,51.07
2019-01-27T09:46:31.197Z,45.33
2019-01-27T09:48:58.008Z,45.90
2019-01-27T09:51:24.943Z,40.48
2019-01-27T09:53:51.652Z,49.27
2019-01-27T09:56:18.393Z,46.00
2019-01-27T09:58:45.059Z,40.90
2019-01-27T10:01:13.539Z,47.12
2019-01-27T10:03:40.156Z,45.33
2019-01-27T10:06:07.096Z,47.43
2019-01-27T10:08:33.724Z,48.13
2019-01-27T10:11:00.480Z,44.47
2019-01-27T10:13:27.408Z,42.27
2019-01-27T10:15:54.343Z,53.08
2019-01-27T10:18:20.991Z,46.03
2019-01-27T10:20:47.587Z,43.15
2019-01-27T10:23:14.509Z,46.93
2019-01-27T10:25:41.468Z,45.03
2019-01-27T10:28:08.128Z,40.50
2019-01-27T10:30:34.887Z,40.23
2019-01-27T10:33:01.707Z,40.40
2019-01-27T10:35:28.644Z,38.17
2019-01-27T10:37:56.209Z,38.73
2019-01-27T10:40:25.306Z,48.27
2019-01-27T10:42:52.000Z,45.30
2019-01-27T10:45:21.608Z,41.17
2019-01-27T10:47:48.949Z,37.10
2019-01-27T10:50:16.216Z,39.17
2019-01-27T10:52:45.855Z,39.60
2019-01-27T10:55:17.823Z,44.00
2019-01-27T10:57:48.354Z,40.47
2019-01-27T11:00:16.156Z,39.70
2019-01-27T11:02:46.743Z,48.40
2019-01-27T11:05:14.442Z,48.30
2019-01-27T11:07:46.264Z,49.58
2019-01-27T11:10:14.174Z,49.83
2019-01-27T11:12:43.788Z,43.33
2019-01-27T11:15:10.778Z,49.93
2019-01-27T11:17:40.742Z,46.00
2019-01-27T11:20:11.443Z,48.67
2019-01-27T11:22:42.642Z,49.25
2019-01-27T11:25:19.252Z,50.67
2019-01-27T11:27:42.992Z,55.37
2019-01-27T11:30:13.318Z,55.17
2019-01-27T11:35:29.750Z,71.57
2019-01-27T11:37:57.823Z,72.63
2019-01-27T11:40:25.945Z,62.70
2019-01-27T11:42:53.100Z,70.60
2019-01-27T11:45:24.217Z,60.37
2019-01-27T11:47:51.933Z,65.27
2019-01-27T11:50:24.420Z,67.43
2019-01-27T11:52:54.924Z,66.20
2019-01-27T11:55:24.357Z,61.60
2019-01-27T11:58:05.919Z,68.13
2019-01-27T12:00:31.109Z,64.23
2019-01-27T12:02:58.938Z,57.60
2019-01-27T12:05:26.260Z,58.47
2019-01-27T12:07:54.359Z,59.90
2019-01-27T12:10:22.120Z,55.70
2019-01-27T12:12:51.502Z,48.63
2019-01-27T12:15:19.305Z,52.35
2019-01-27T12:17:51.983Z,48.37
2019-01-27T12:20:19.733Z,49.27
2019-01-27T12:22:47.309Z,52.33
2019-01-27T12:25:15.402Z,52.43
2019-01-27T12:27:43.305Z,50.13
2019-01-27T12:30:16.303Z,47.62
2019-01-27T12:32:45.702Z,58.60
2019-01-27T12:35:21.228Z,47.17
2019-01-27T12:37:48.117Z,47.45
2019-01-27T12:40:14.698Z,48.03
2019-01-27T12:42:43.567Z,42.73
2019-01-27T12:45:12.341Z,48.98
2019-01-27T12:47:40.985Z,40.83
2019-01-27T12:50:08.171Z,45.03
2019-01-27T12:52:34.983Z,55.43
2019-01-27T12:55:03.378Z,39.23
2019-01-27T12:57:31.857Z,44.63
2019-01-27T13:00:01.403Z,39.00
2019-01-27T13:02:28.020Z,42.67
2019-01-27T13:04:57.043Z,37.70
2019-01-27T13:07:23.804Z,40.85
2019-01-27T13:09:53.902Z,47.53
2019-01-27T13:12:22.603Z,39.13
2019-01-27T13:14:49.274Z,41.73
2019-01-27T13:17:17.295Z,48.50
2019-01-27T13:19:44.354Z,41.63
2019-01-27T13:22:12.376Z,44.50
2019-01-27T13:24:41.658Z,46.10
2019-01-27T13:27:08.276Z,44.03
2019-01-27T13:29:38.894Z,44.58
2019-01-27T13:32:06.514Z,47.78
2019-01-27T13:34:34.221Z,43.30
2019-01-27T13:37:03.075Z,49.23
2019-01-27T13:39:30.700Z,41.07
2019-01-27T13:41:57.630Z,47.90
2019-01-27T13:44:24.771Z,66.12
2019-01-27T13:46:52.769Z,59.60
2019-01-27T13:49:26.249Z,46.53
2019-01-27T13:51:53.119Z,45.33
2019-01-27T13:54:19.824Z,41.97
2019-01-27T13:56:46.636Z,39.50
2019-01-27T13:59:13.618Z,42.60
2019-01-27T14:01:40.909Z,47.13
2019-01-27T14:04:07.639Z,45.90
2019-01-27T14:06:34.622Z,43.07
2019-01-27T14:09:01.316Z,37.77
2019-01-27T14:11:27.935Z,39.70
2019-01-27T14:13:54.850Z,37.43
2019-01-27T14:16:21.898Z,35.73
2019-01-27T14:18:49.142Z,33.67
2019-01-27T14:21:16.556Z,37.97
2019-01-27T14:23:44.092Z,40.77
2019-01-27T14:26:10.989Z,41.30
2019-01-27T14:28:37.622Z,40.67
2019-01-27T14:31:04.367Z,35.03
2019-01-27T14:33:31.221Z,38.40
2019-01-27T14:35:58.150Z,47.87
2019-01-27T14:38:25.178Z,40.50
2019-01-27T14:40:52.133Z,42.23
2019-01-27T14:43:18.776Z,39.43
2019-01-27T14:45:45.392Z,35.60
2019-01-27T14:48:12.435Z,69.00
2019-01-27T14:50:39.422Z,50.30
2019-01-27T14:53:07.751Z,44.08
2019-01-27T14:55:34.383Z,44.10
2019-01-27T14:58:01.356Z,46.63
2019-01-27T15:00:28.312Z,50.00
2019-01-27T15:02:55.008Z,41.47
2019-01-27T15:05:21.773Z,41.63
2019-01-27T15:07:48.720Z,43.33
2019-01-27T15:10:15.565Z,44.03
2019-01-27T15:12:42.494Z,36.03
2019-01-27T15:15:09.452Z,39.23
2019-01-27T15:17:37.325Z,38.73
2019-01-27T15:20:04.046Z,40.33
2019-01-27T15:22:30.639Z,41.23
2019-01-27T15:24:57.723Z,40.27
2019-01-27T15:27:24.677Z,35.13
2019-01-27T15:29:51.347Z,41.67
2019-01-27T15:32:18.436Z,47.40
2019-01-27T15:34:45.054Z,62.20
2019-01-27T15:37:12.068Z,50.28
2019-01-27T15:39:38.849Z,51.53
2019-01-27T15:42:05.992Z,54.95
2019-01-27T15:44:32.868Z,45.17
2019-01-27T15:47:00.104Z,63.45
2019-01-27T15:49:26.847Z,55.53
2019-01-27T15:51:53.558Z,53.83
2019-01-27T15:54:20.226Z,41.10
2019-01-27T15:56:47.193Z,44.23
2019-01-27T15:59:14.344Z,41.90
2019-01-27T16:01:41.317Z,49.03
2019-01-27T16:04:08.498Z,55.53
2019-01-27T16:06:35.587Z,52.17
2019-01-27T16:09:02.265Z,43.33
2019-01-27T16:11:29.187Z,46.95
2019-01-27T16:13:55.859Z,45.03
2019-01-27T16:16:22.785Z,50.40
2019-01-27T16:18:49.762Z,54.10
2019-01-27T16:21:16.848Z,59.55
2019-01-27T16:23:43.553Z,50.80
2019-01-27T16:26:10.502Z,56.43
2019-01-27T16:28:38.906Z,61.10
2019-01-27T16:31:05.651Z,66.10
2019-01-27T16:33:32.634Z,61.13
2019-01-27T16:35:59.582Z,55.55
2019-01-27T16:38:26.334Z,57.97
2019-01-27T16:40:52.972Z,51.27
2019-01-27T16:43:20.263Z,55.23
2019-01-27T16:45:46.974Z,52.80
2019-01-27T16:48:14.041Z,48.60
2019-01-27T16:50:41.002Z,56.60
2019-01-27T16:53:09.320Z,54.93
2019-01-27T16:55:36.064Z,55.73
2019-01-27T16:58:02.986Z,61.80
2019-01-27T17:00:29.654Z,55.73
2019-01-27T17:02:56.909Z,51.00
2019-01-27T17:05:23.672Z,57.30
2019-01-27T17:07:50.416Z,51.50
2019-01-27T17:10:17.149Z,60.57
2019-01-27T17:12:44.623Z,58.98
2019-01-27T17:15:11.634Z,62.43
2019-01-27T17:17:39.606Z,60.80
2019-01-27T17:20:06.276Z,67.53
2019-01-27T17:22:33.293Z,71.30
2019-01-27T17:25:00.534Z,61.40
2019-01-27T17:27:27.341Z,77.83
2019-01-27T17:29:54.385Z,75.87
2019-01-27T17:32:21.446Z,69.00
2019-01-27T17:34:49.005Z,58.60
2019-01-27T17:37:15.596Z,63.60
2019-01-27T17:39:42.537Z,57.50
2019-01-27T17:42:09.805Z,62.77
2019-01-27T17:44:36.463Z,56.03
2019-01-27T17:47:03.103Z,60.63
2019-01-27T17:49:29.747Z,63.80
2019-01-27T17:51:56.913Z,63.17
2019-01-27T17:54:24.557Z,64.10
2019-01-27T17:56:51.263Z,67.53
2019-01-27T17:59:18.408Z,59.17
2019-01-27T18:01:45.009Z,67.97
2019-01-27T18:04:11.954Z,67.33
2019-01-27T18:06:38.957Z,60.07
2019-01-27T18:09:05.764Z,65.03
2019-01-27T18:11:33.370Z,52.33
2019-01-27T18:14:00.344Z,72.57
2019-01-27T18:16:27.169Z,62.70
2019-01-27T18:18:54.096Z,60.55
2019-01-27T18:21:21.006Z,59.47
2019-01-27T18:23:47.683Z,65.47
2019-01-27T18:26:14.431Z,63.10
2019-01-27T18:28:41.891Z,58.65
2019-01-27T18:31:08.663Z,54.80
2019-01-27T18:33:35.433Z,55.50
2019-01-27T18:36:04.068Z,60.15
2019-01-27T18:38:30.782Z,57.00
2019-01-27T18:40:57.555Z,59.40
2019-01-27T18:43:24.191Z,66.20
2019-01-27T18:45:50.898Z,60.87
2019-01-27T18:48:18.084Z,73.53
2019-01-27T18:50:44.715Z,60.07
2019-01-27T18:53:13.220Z,60.97
2019-01-27T18:55:40.249Z,65.40
2019-01-27T18:58:07.069Z,57.73
2019-01-27T19:00:34.144Z,55.43
2019-01-27T19:03:00.843Z,60.00
2019-01-27T19:05:27.878Z,50.43
2019-01-27T19:07:54.892Z,57.17
2019-01-27T19:10:21.848Z,54.37
2019-01-27T19:12:48.487Z,54.18
2019-01-27T19:15:15.077Z,52.53
2019-01-27T19:17:41.926Z,50.37
2019-01-27T19:20:08.720Z,54.73
2019-01-27T19:22:35.631Z,60.80
2019-01-27T19:25:02.215Z,54.80
2019-01-27T19:27:29.109Z,52.07
2019-01-27T19:29:55.962Z,130.60
2019-01-27T19:32:22.637Z,69.50
2019-01-27T19:34:49.257Z,88.27
2019-01-27T19:37:16.155Z,73.33
2019-01-27T19:39:42.917Z,60.03
2019-01-27T19:42:09.613Z,61.93
2019-01-27T19:44:36.835Z,52.30
2019-01-27T19:47:04.989Z,55.35
2019-01-27T19:49:31.717Z,53.77
2019-01-27T19:51:58.386Z,54.97
2019-01-27T19:54:25.337Z,55.17
2019-01-27T19:56:52.012Z,63.97
2019-01-27T19:59:18.754Z,64.77
2019-01-27T20:01:45.722Z,59.47
2019-01-27T20:04:12.509Z,57.67
2019-01-27T20:06:39.465Z,58.50
2019-01-27T20:09:06.275Z,65.83
2019-01-27T20:11:34.179Z,57.20
2019-01-27T20:14:00.803Z,60.07
2019-01-27T20:16:27.832Z,62.40
2019-01-27T20:18:54.682Z,49.80
2019-01-27T20:21:21.557Z,56.02
2019-01-27T20:23:48.188Z,47.83
2019-01-27T20:26:15.173Z,50.60
2019-01-27T20:28:42.155Z,53.60
2019-01-27T20:31:08.851Z,47.78
2019-01-27T20:33:35.956Z,50.65
2019-01-27T20:36:02.883Z,51.70
2019-01-27T20:38:34.142Z,56.70
2019-01-27T20:41:02.942Z,46.02
2019-01-27T20:43:29.920Z,44.53
2019-01-27T20:46:05.183Z,53.67
2019-01-27T20:51:19.372Z,54.42
2019-01-27T20:53:49.135Z,61.10
2019-01-27T20:56:18.219Z,49.50
2019-01-27T20:58:46.187Z,53.47
2019-01-27T21:01:13.235Z,53.23
2019-01-27T21:03:41.644Z,54.33
2019-01-27T21:06:10.833Z,55.53
2019-01-27T21:08:44.922Z,46.63
2019-01-27T21:11:13.185Z,47.50
2019-01-27T21:13:45.007Z,50.08
2019-01-27T21:16:13.906Z,58.13
2019-01-27T21:18:44.458Z,56.90
2019-01-27T21:21:15.757Z,51.40
2019-01-27T21:23:45.405Z,53.17
2019-01-27T21:26:26.951Z,48.83
2019-01-27T21:28:58.050Z,50.10
2019-01-27T21:31:27.015Z,50.33
2019-01-27T21:33:56.035Z,50.95
2019-01-27T21:36:31.555Z,44.77
2019-01-27T21:38:56.794Z,49.87
2019-01-27T21:41:25.513Z,53.70
2019-01-27T21:43:53.820Z,53.83
2019-01-27T21:46:23.446Z,52.45
2019-01-27T21:48:50.253Z,52.30
2019-01-27T21:51:20.889Z,43.80
2019-01-27T21:53:48.496Z,45.70
2019-01-27T21:56:19.875Z,57.53
2019-01-27T21:58:47.072Z,44.47
2019-01-27T22:01:17.927Z,47.27
2019-01-27T22:03:45.007Z,54.47
2019-01-27T22:06:16.279Z,49.73
2019-01-27T22:08:46.277Z,53.60
2019-01-27T22:11:14.280Z,51.40
2019-01-27T22:13:46.061Z,47.15
2019-01-27T22:16:15.157Z,44.50
2019-01-27T22:18:42.618Z,46.90
2019-01-27T22:21:09.241Z,36.73
2019-01-27T22:23:36.907Z,44.93
2019-01-27T22:26:08.113Z,43.03
2019-01-27T22:31:21.932Z,45.83
2019-01-27T22:33:53.592Z,45.20
2019-01-27T22:36:24.695Z,43.97
2019-01-27T22:38:54.309Z,47.23
2019-01-27T22:41:21.193Z,39.13
2019-01-27T22:43:49.329Z,45.63
2019-01-27T22:46:16.201Z,43.60
2019-01-27T22:48:47.240Z,49.50
2019-01-27T22:51:15.123Z,53.20
2019-01-27T22:53:44.943Z,61.07
2019-01-27T22:56:16.705Z,43.63
2019-01-27T22:58:46.556Z,52.37
2019-01-27T23:01:14.208Z,43.17
2019-01-27T23:03:43.586Z,47.44
2019-01-27T23:06:11.460Z,45.97
2019-01-27T23:08:40.185Z,48.37
2019-01-27T23:11:11.055Z,42.17
2019-01-27T23:13:38.018Z,42.40
2019-01-27T23:16:06.867Z,43.20
2019-01-27T23:18:37.640Z,47.80
2019-01-27T23:21:08.576Z,41.77
2019-01-27T23:23:37.411Z,46.90
2019-01-27T23:26:06.275Z,42.13
2019-01-27T23:28:32.985Z,57.00
2019-01-27T23:31:03.061Z,55.03
2019-01-27T23:33:32.793Z,60.43
2019-01-27T23:36:03.371Z,56.90
2019-01-27T23:38:33.222Z,48.77
2019-01-27T23:41:04.702Z,49.00
2019-01-27T23:43:32.301Z,48.93
2019-01-27T23:46:02.502Z,54.73
2019-01-27T23:48:33.564Z,37.43
2019-01-27T23:51:00.752Z,45.57
2019-01-27T23:53:34.224Z,37.85
2019-01-27T23:56:02.879Z,47.47
2019-01-27T23:58:35.081Z,43.07
